Time;durP1;ratioP1;P1;durP2;ratioP2;P2;SDS_P1;SDS_P2;PMS_P1;PMS_P2;Temp;Humidity;BMP_temperature;BMP_pressure;BME280_temperature;BME280_humidity;BME280_pressure;Samples;Min_cycle;Max_cycle;Signal;HPM_P1;HPM_P2
2022/11/06 00:02:25;;;;;;;146.87;48.90;;;;;;;5.37;100.00;100163.05;1656886;85;21051;-82
2022/11/06 00:06:46;;;;;;;122.33;44.65;;;;;;;5.38;100.00;100165.50;1658810;85;21217;-81
2022/11/06 00:07:33;;;;;;;161.37;51.58;;;;;;;5.40;100.00;100163.88;1654256;85;20999;-82
2022/11/06 00:10:05;;;;;;;133.00;45.50;;;;;;;5.40;100.00;100171.50;1659626;85;21604;-82
2022/11/06 00:12:31;;;;;;;143.28;48.05;;;;;;;5.40;100.00;100170.68;1660949;85;21033;-84
2022/11/06 00:15:01;;;;;;;125.20;45.88;;;;;;;5.40;100.00;100164.69;1670575;82;21063;-83
2022/11/06 00:17:33;;;;;;;141.40;45.00;;;;;;;5.41;100.00;100160.06;1690600;83;21241;-82
2022/11/06 00:20:04;;;;;;;115.47;42.80;;;;;;;5.41;100.00;100155.44;1687421;83;21550;-83
2022/11/06 00:22:38;;;;;;;131.60;46.42;;;;;;;5.42;100.00;100160.34;1687233;83;21014;-82
2022/11/06 00:25:10;;;;;;;136.65;45.03;;;;;;;5.42;100.00;100160.34;1684812;84;21067;-82
2022/11/06 00:27:40;;;;;;;131.18;46.68;;;;;;;5.46;100.00;100157.36;1662423;85;21392;-82
2022/11/06 00:30:10;;;;;;;123.28;42.50;;;;;;;5.46;100.00;100157.36;1653233;85;21593;-81
2022/11/06 00:32:41;;;;;;;120.97;46.40;;;;;;;5.47;100.00;100155.73;1623970;86;21095;-80
2022/11/06 00:35:15;;;;;;;126.40;46.15;;;;;;;5.50;100.00;100162.55;1637922;86;21067;-82
2022/11/06 00:37:48;;;;;;;124.58;44.38;;;;;;;5.46;100.00;100156.00;1642337;86;21067;-80
2022/11/06 00:40:22;;;;;;;128.27;46.58;;;;;;;5.49;100.00;100161.73;1641928;87;21056;-82
2022/11/06 00:43:00;;;;;;;120.40;43.58;;;;;;;5.51;100.00;100162.83;1635728;87;20949;-78
2022/11/06 00:45:38;;;;;;;107.52;41.35;;;;;;;5.49;100.00;100159.01;1602117;87;20960;-79
2022/11/06 00:48:11;;;;;;;120.42;45.33;;;;;;;5.48;100.00;100161.45;1657089;85;21007;-81
2022/11/06 00:50:44;;;;;;;125.07;45.30;;;;;;;5.49;100.00;100163.09;1655546;85;20986;-82
2022/11/06 00:53:17;;;;;;;126.97;45.25;;;;;;;5.49;100.00;100160.38;1625893;86;20983;-81
2022/11/06 00:55:49;;;;;;;112.83;42.23;;;;;;;5.50;100.00;100158.47;1639523;86;21159;-80
2022/11/06 00:58:20;;;;;;;124.27;46.48;;;;;;;5.47;100.00;100158.45;1659008;85;21165;-81
2022/11/06 01:00:47;;;;;;;122.43;41.73;;;;;;;5.47;100.00;100158.45;1660264;85;21552;-81
2022/11/06 01:03:13;;;;;;;122.75;43.95;;;;;;;5.47;100.00;100148.11;1657359;85;21288;-81
2022/11/06 01:05:42;;;;;;;124.18;44.50;;;;;;;5.49;100.00;100153.56;1645390;86;21047;-82
2022/11/06 01:08:17;;;;;;;123.78;45.28;;;;;;;5.49;100.00;100153.56;1645484;86;20944;-80
2022/11/06 01:10:57;;;;;;;121.97;43.70;;;;;;;5.48;100.00;100146.48;1658884;85;21074;-81
2022/11/06 01:13:22;;;;;;;115.08;43.17;;;;;;;5.49;100.00;100148.11;1657096;85;21096;-82
2022/11/06 01:15:55;;;;;;;117.95;41.50;;;;;;;5.50;100.00;100151.11;1659767;85;21068;-81
2022/11/06 01:18:28;;;;;;;114.28;41.23;;;;;;;5.52;100.00;100150.30;1649532;85;21227;-81
2022/11/06 01:21:03;;;;;;;108.22;40.00;;;;;;;5.52;100.00;100145.41;1657234;85;21131;-82
2022/11/06 01:23:33;;;;;;;111.57;40.95;;;;;;;5.53;100.00;100138.33;1656523;85;20947;-82
2022/11/06 01:26:06;;;;;;;99.67;39.42;;;;;;;5.55;100.00;100148.95;1702629;83;20996;-82
2022/11/06 01:28:35;;;;;;;108.35;40.12;;;;;;;5.55;100.00;100144.86;1641937;85;21070;-82
2022/11/06 01:31:08;;;;;;;109.95;42.33;;;;;;;5.56;100.00;100150.05;1660165;84;21086;-82
2022/11/06 01:33:40;;;;;;;117.82;42.85;;;;;;;5.57;100.00;100146.78;1653130;85;21100;-81
2022/11/06 01:36:14;;;;;;;108.07;40.65;;;;;;;5.57;100.00;100148.14;1658873;85;21023;-83
2022/11/06 01:38:44;;;;;;;112.57;41.42;;;;;;;5.56;100.00;100153.31;1653586;84;21078;-79
2022/11/06 01:41:23;;;;;;;108.32;40.83;;;;;;;5.57;100.00;100148.14;1643671;86;21577;-79
2022/11/06 01:44:00;;;;;;;103.12;40.98;;;;;;;5.58;100.00;100142.97;1633606;87;21479;-80
2022/11/06 01:46:33;;;;;;;116.55;39.78;;;;;;;5.57;100.00;100137.25;1640384;86;21067;-81
2022/11/06 01:49:13;;;;;;;101.65;38.58;;;;;;;5.56;100.00;100135.06;1631560;88;20968;-81
2022/11/06 01:51:51;;;;;;;102.32;39.45;;;;;;;5.57;100.00;100139.97;1631609;88;21125;-79
2022/11/06 01:54:25;;;;;;;105.43;39.67;;;;;;;5.57;100.00;100138.06;1631533;85;20972;-81
2022/11/06 01:56:56;;;;;;;100.07;35.60;;;;;;;5.56;100.00;100135.06;1622756;85;21010;-81
2022/11/06 01:59:31;;;;;;;91.57;36.38;;;;;;;5.56;100.00;100128.80;1620367;88;21886;-83
2022/11/06 02:01:59;;;;;;;104.23;38.73;;;;;;;5.55;100.00;100130.70;1631127;87;20975;-82
2022/11/06 02:04:37;;;;;;;97.55;36.75;;;;;;;5.56;100.00;100134.25;1630239;86;20959;-80
2022/11/06 02:07:10;;;;;;;90.32;36.10;;;;;;;5.55;100.00;100133.42;1640649;86;21062;-81
2022/11/06 02:09:39;;;;;;;95.57;38.00;;;;;;;5.56;100.00;100139.16;1604887;87;20927;-81
2022/11/06 02:12:55;;;;;;;87.40;34.33;;;;;;;5.57;100.00;100141.33;1673473;85;21175;-81
2022/11/06 02:15:48;;;;;;;92.80;35.58;;;;;;;5.59;100.00;100140.52;1671534;84;21006;-82
2022/11/06 02:18:47;;;;;;;82.05;34.85;;;;;;;5.59;100.00;100133.71;1669685;84;21439;-84
2022/11/06 02:21:30;;;;;;;85.30;33.25;;;;;;;5.57;100.00;100142.16;1650346;85;21078;-80
2022/11/06 02:24:37;;;;;;;91.85;36.30;;;;;;;5.57;100.00;100142.16;1632908;86;20959;-81
2022/11/06 02:27:18;;;;;;;89.45;35.50;;;;;;;5.57;100.00;100142.69;1616784;87;21590;-81
2022/11/06 02:30:10;;;;;;;85.75;35.43;;;;;;;5.58;100.00;100146.51;1660768;84;21155;-82
2022/11/06 02:33:00;;;;;;;94.92;36.33;;;;;;;5.59;100.00;100148.15;1673503;84;20958;-80
2022/11/06 02:35:35;;;;;;;97.25;36.45;;;;;;;5.59;100.00;100148.15;1636754;86;21449;-81
2022/11/06 02:38:19;;;;;;;81.63;34.00;;;;;;;5.60;100.00;100152.51;1674796;84;21512;-82
2022/11/06 02:40:52;;;;;;;91.82;36.33;;;;;;;5.57;100.00;100152.23;1675636;85;21151;-82
2022/11/06 02:43:31;;;;;;;87.55;36.38;;;;;;;5.57;100.00;100147.59;1668413;85;21039;-82
2022/11/06 02:46:12;;;;;;;79.60;34.75;;;;;;;5.57;100.00;100147.59;1669957;84;21018;-82
2022/11/06 02:48:51;;;;;;;;;;;;;;;5.57;100.00;100149.50;1641817;86;20972;-82
2022/11/06 02:51:21;;;;;;;87.47;34.95;;;;;;;5.57;100.00;100148.14;1632301;86;20150;-82
2022/11/06 02:53:52;;;;;;;81.90;32.48;;;;;;;5.56;100.00;100143.78;1672937;84;21842;-82
2022/11/06 02:56:31;;;;;;;78.95;34.08;;;;;;;5.54;100.00;100135.06;1602256;87;21059;-82
2022/11/06 02:59:05;;;;;;;81.10;33.58;;;;;;;5.55;100.00;100143.50;1641388;86;21534;-83
2022/11/06 03:01:44;;;;;;;83.55;34.60;;;;;;;5.53;100.00;100136.97;1630029;87;21069;-82
2022/11/06 03:04:15;;;;;;;79.92;32.63;;;;;;;5.56;100.00;100145.14;1617053;88;20963;-81
2022/11/06 03:06:50;;;;;;;79.95;30.85;;;;;;;5.56;100.00;100141.05;1634287;86;21173;-80
2022/11/06 03:09:24;;;;;;;78.17;33.55;;;;;;;5.54;100.00;100134.52;1639478;86;20951;-82
2022/11/06 03:12:01;;;;;;;77.47;31.52;;;;;;;5.55;100.00;100140.23;1607400;87;20944;-81
2022/11/06 03:15:13;;;;;;;71.00;30.55;;;;;;;5.55;100.00;100144.32;1605485;88;21468;-82
2022/11/06 03:18:04;;;;;;;71.00;31.10;;;;;;;5.55;100.00;100145.69;1669545;84;21490;-81
2022/11/06 03:21:01;;;;;;;69.77;30.17;;;;;;;5.55;100.00;100141.59;1615661;85;21566;-81
2022/11/06 03:23:48;;;;;;;76.80;31.77;;;;;;;5.56;100.00;100141.05;1679834;84;21046;-79
2022/11/06 03:26:31;;;;;;;72.42;30.92;;;;;;;5.55;100.00;100138.05;1674248;84;20927;-80
2022/11/06 03:29:21;;;;;;;75.75;30.68;;;;;;;5.56;100.00;100143.78;1689279;82;20987;-80
2022/11/06 03:31:59;;;;;;;60.30;27.93;;;;;;;5.55;100.00;100140.78;1669408;84;21544;-81
2022/11/06 03:34:37;;;;;;;68.55;29.70;;;;;;;5.54;100.00;100148.13;1648888;85;20859;-81
2022/11/06 03:37:20;;;;;;;75.10;32.13;;;;;;;5.54;100.00;100148.13;1668252;84;20952;-81
2022/11/06 03:39:54;;;;;;;;;;;;;;;5.53;100.00;100137.51;1662817;85;21520;-82
2022/11/06 03:42:34;;;;;;;73.45;31.00;;;;;;;5.55;100.00;100140.78;1637265;86;20436;-81
2022/11/06 03:45:09;;;;;;;67.08;30.35;;;;;;;5.54;100.00;100144.59;1659738;85;21505;-81
2022/11/06 03:47:39;;;;;;;70.67;28.73;;;;;;;5.53;100.00;100144.31;1640815;86;21573;-80
2022/11/06 03:50:25;;;;;;;73.17;31.23;;;;;;;5.54;100.00;100140.50;1672957;85;21016;-83
2022/11/06 03:53:04;;;;;;;68.72;28.83;;;;;;;5.54;100.00;100144.59;1671010;85;21000;-81
2022/11/06 03:55:47;;;;;;;65.85;29.37;;;;;;;5.54;100.00;100141.33;1659087;84;20962;-83
2022/11/06 03:58:18;;;;;;;62.38;27.52;;;;;;;5.55;100.00;100136.70;1671156;84;21040;-83
2022/11/06 04:00:49;;;;;;;77.78;30.00;;;;;;;5.53;100.00;100136.97;1651804;84;20937;-82
2022/11/06 04:03:24;;;;;;;67.45;29.77;;;;;;;5.52;100.00;100129.88;1668636;84;21001;-83
2022/11/06 04:06:00;;;;;;;62.62;27.55;;;;;;;5.52;100.00;100129.88;1666429;85;21071;-83
2022/11/06 04:14:08;;;;;;;60.45;27.13;;;;;;;5.52;100.00;100135.87;1668144;85;21713;-83
2022/11/06 04:16:38;;;;;;;62.83;28.00;;;;;;;5.51;100.00;100132.88;1671821;85;20934;-84
2022/11/06 04:19:13;;;;;;;62.45;27.98;;;;;;;5.51;100.00;100135.59;1669358;84;21135;-86
2022/11/06 04:22:07;;;;;;;57.08;26.90;;;;;;;5.51;100.00;100141.04;1663517;84;21100;-85
2022/11/06 04:28:23;;;;;;;66.90;27.00;;;;;;;5.52;100.00;100129.06;1661095;84;21272;-87
2022/11/06 04:31:05;;;;;;;60.70;27.05;;;;;;;5.53;100.00;100134.78;1680761;83;21036;-87
2022/11/06 04:34:29;;;;;;;62.80;27.02;;;;;;;5.51;100.00;100132.33;1627490;87;21570;-86
2022/11/06 04:37:14;;;;;;;57.95;28.45;;;;;;;5.51;100.00;100134.23;1650296;85;21067;-87
2022/11/06 04:40:01;;;;;;;54.90;26.12;;;;;;;5.51;100.00;100140.50;1650140;85;21578;-87
2022/11/06 04:42:50;;;;;;;53.40;26.42;;;;;;;5.49;100.00;100138.58;1652352;85;21277;-86
2022/11/06 04:45:38;;;;;;;52.83;25.17;;;;;;;5.48;100.00;100138.85;1644229;85;21076;-85
2022/11/06 04:48:06;;;;;;;56.63;26.70;;;;;;;5.47;100.00;100138.58;1657099;84;21554;-83
2022/11/06 04:50:44;;;;;;;54.25;26.93;;;;;;;5.47;100.00;100138.58;1643425;84;21131;-86
2022/11/06 04:53:16;;;;;;;49.73;25.70;;;;;;;5.46;100.00;100141.02;1700235;83;20900;-86
2022/11/06 04:56:04;;;;;;;50.23;26.77;;;;;;;5.46;100.00;100151.91;1653477;84;20915;-85
2022/11/06 04:58:34;;;;;;;61.70;27.90;;;;;;;5.48;100.00;100140.21;1650931;83;21063;-87
2022/11/06 05:01:07;;;;;;;47.50;23.25;;;;;;;5.49;100.00;100145.94;1685974;83;21140;-86
2022/11/06 05:03:39;;;;;;;48.23;24.87;;;;;;;5.47;100.00;100150.29;1691247;83;21105;-83
2022/11/06 05:06:11;;;;;;;52.58;26.68;;;;;;;5.46;100.00;100150.02;1663540;83;21057;-86
2022/11/06 05:08:45;;;;;;;55.50;26.97;;;;;;;5.47;100.00;100156.27;1685966;82;21259;-82
2022/11/06 05:11:18;;;;;;;51.85;26.85;;;;;;;5.46;100.00;100154.09;1691089;82;20927;-85
2022/11/06 05:13:47;;;;;;;49.75;24.63;;;;;;;5.47;100.00;100157.64;1685118;84;21508;-87
2022/11/06 05:16:18;;;;;;;53.68;26.23;;;;;;;5.47;100.00;100163.08;1684216;82;21059;-85
2022/11/06 05:18:50;;;;;;;50.52;25.55;;;;;;;5.48;100.00;100163.36;1659305;84;21015;-84
2022/11/06 05:24:12;;;;;;;50.48;24.92;;;;;;;5.48;100.00;100169.63;1688364;82;21048;-85
2022/11/06 05:26:43;;;;;;;51.58;26.52;;;;;;;5.48;100.00;100169.63;1677563;84;21052;-86
2022/11/06 05:29:14;;;;;;;49.23;26.27;;;;;;;5.48;100.00;100175.07;1665744;84;21141;-87
2022/11/06 05:31:44;;;;;;;48.25;25.90;;;;;;;5.49;100.00;100176.71;1676937;85;21015;-86
2022/11/06 05:34:14;;;;;;;48.02;25.85;;;;;;;5.50;100.00;100186.52;1677927;85;21120;-86
2022/11/06 05:36:56;;;;;;;54.50;26.07;;;;;;;5.51;100.00;100189.52;1654695;85;21024;-85
2022/11/06 05:39:22;;;;;;;45.23;23.85;;;;;;;5.51;100.00;100180.53;1668040;84;21524;-84
2022/11/06 05:41:54;;;;;;;48.02;24.47;;;;;;;5.51;100.00;100180.53;1668006;84;20975;-86
2022/11/06 05:44:25;;;;;;;49.35;25.27;;;;;;;5.53;100.00;100187.34;1666170;84;21558;-84
2022/11/06 05:46:59;;;;;;;50.38;25.10;;;;;;;5.52;100.00;100193.06;1674848;84;21971;-83
2022/11/06 05:49:32;;;;;;;58.85;25.95;;;;;;;5.52;100.00;100193.06;1670423;85;21007;-84
2022/11/06 05:52:09;;;;;;;50.20;25.50;;;;;;;5.50;100.00;100194.69;1678285;83;21050;-82
2022/11/06 05:54:41;;;;;;;49.03;26.97;;;;;;;5.55;100.00;100196.61;1682776;84;21041;-85
2022/11/06 05:57:12;;;;;;;48.30;24.82;;;;;;;5.55;100.00;100196.61;1689693;83;21041;-83
2022/11/06 05:59:43;;;;;;;46.88;25.75;;;;;;;5.57;100.00;100195.26;1695592;84;21112;-84
2022/11/06 06:02:16;;;;;;;44.85;24.35;;;;;;;5.59;100.00;100203.16;1665143;84;20990;-83
2022/11/06 06:04:47;;;;;;;53.40;26.33;;;;;;;5.61;100.00;100206.44;1690919;83;21017;-83
2022/11/06 06:07:18;;;;;;;43.80;24.43;;;;;;;5.66;100.00;100209.19;1695721;83;21046;-84
2022/11/06 06:09:56;;;;;;;44.65;24.00;;;;;;;5.68;100.00;100212.46;1697265;83;20948;-84
2022/11/06 06:12:25;;;;;;;46.23;24.20;;;;;;;5.65;100.00;100215.72;1644473;83;21124;-84
2022/11/06 06:15:00;;;;;;;46.02;24.07;;;;;;;5.67;100.00;100217.63;1689948;84;21089;-87
2022/11/06 06:17:28;;;;;;;43.55;23.95;;;;;;;5.63;100.00;100215.16;1689215;84;21042;-85
2022/11/06 06:19:57;;;;;;;52.58;28.90;;;;;;;5.59;100.00;100213.52;1693365;83;21547;-84
2022/11/06 06:22:26;;;;;;;61.25;30.27;;;;;;;5.60;100.00;100217.88;1667960;84;21077;-85
2022/11/06 06:25:02;;;;;;;62.20;34.45;;;;;;;5.62;100.00;100213.53;1678600;83;20915;-84
2022/11/06 06:27:29;;;;;;;52.80;30.15;;;;;;;5.62;100.00;100213.53;1683434;82;21839;-84
2022/11/06 06:30:00;;;;;;;61.63;31.70;;;;;;;5.68;100.00;100223.90;1689019;84;21052;-87
2022/11/06 06:32:30;;;;;;;50.88;27.10;;;;;;;5.68;100.00;100223.90;1680827;83;21036;-85
2022/11/06 06:35:00;;;;;;;68.00;29.98;;;;;;;5.69;100.00;100223.63;1655055;84;20951;-84
2022/11/06 06:37:34;;;;;;;49.40;27.13;;;;;;;5.71;100.00;100228.27;1669016;83;21658;-84
2022/11/06 06:40:10;;;;;;;47.62;25.65;;;;;;;5.74;100.00;100234.55;1707466;83;20987;-78
2022/11/06 06:42:43;;;;;;;50.52;24.63;;;;;;;5.79;100.00;100229.09;1673734;83;21670;-83
2022/11/06 06:45:13;;;;;;;49.25;26.35;;;;;;;5.78;100.00;100231.53;1674607;84;21094;-80
2022/11/06 06:47:41;;;;;;;49.70;25.30;;;;;;;5.80;100.00;100224.45;1696551;84;21018;-83
2022/11/06 06:50:13;;;;;;;48.92;23.40;;;;;;;5.84;100.00;100234.55;1673570;84;21163;-83
2022/11/06 06:52:40;;;;;;;52.65;24.23;;;;;;;5.84;100.00;100241.91;1681269;83;21072;-81
2022/11/06 06:55:07;;;;;;;45.08;22.25;;;;;;;5.81;100.00;100239.72;1663032;83;21091;-82
2022/11/06 06:57:36;;;;;;;41.70;23.25;;;;;;;5.79;100.00;100239.98;1632998;84;21038;-81
2022/11/06 07:00:04;;;;;;;47.10;24.57;;;;;;;5.79;100.00;100235.90;1639421;86;21106;-83
2022/11/06 07:02:32;;;;;;;52.53;25.02;;;;;;;5.82;100.00;100236.73;1634197;86;21124;-84
2022/11/06 07:04:58;;;;;;;44.90;22.30;;;;;;;5.84;100.00;100241.36;1665849;84;21007;-84
2022/11/06 07:07:25;;;;;;;42.75;22.60;;;;;;;5.88;100.00;100241.11;1674482;83;21018;-84
2022/11/06 07:09:52;;;;;;;50.92;23.50;;;;;;;5.91;100.00;100237.88;1699487;83;21094;-82
2022/11/06 07:12:20;;;;;;;51.00;24.23;;;;;;;5.93;100.00;100249.33;1686396;83;21095;-85
2022/11/06 07:14:47;;;;;;;46.33;23.15;;;;;;;5.94;100.00;100244.70;1695514;83;21149;-82
2022/11/06 07:17:14;;;;;;;51.15;25.25;;;;;;;5.94;100.00;100248.24;1700927;83;21038;-86
2022/11/06 07:19:41;;;;;;;50.12;25.57;;;;;;;5.94;100.00;100246.06;1701222;83;21081;-82
2022/11/06 07:22:08;;;;;;;50.15;25.23;;;;;;;5.96;100.00;100250.16;1696837;83;20927;-81
2022/11/06 07:24:36;;;;;;;54.70;27.73;;;;;;;5.98;100.00;100251.80;1670893;84;46846;-76
2022/11/06 07:27:04;;;;;;;50.75;26.62;;;;;;;6.02;100.00;100254.27;1663605;83;21084;-76
2022/11/06 07:29:31;;;;;;;57.48;27.42;;;;;;;6.03;100.00;100253.17;1703091;83;21019;-77
2022/11/06 07:31:58;;;;;;;54.03;26.02;;;;;;;5.99;100.00;100252.89;1700604;83;21525;-83
2022/11/06 07:34:25;;;;;;;56.50;28.12;;;;;;;5.99;100.00;100257.52;1699990;83;21007;-80
2022/11/06 07:36:52;;;;;;;58.63;28.42;;;;;;;6.00;100.00;100256.44;1686316;84;21593;-79
2022/11/06 07:39:19;;;;;;;60.92;27.87;;;;;;;6.02;100.00;100261.08;1685941;83;21103;-79
2022/11/06 07:41:46;;;;;;;60.38;29.15;;;;;;;6.05;100.00;100263.27;1672412;84;21117;-75
2022/11/06 07:44:13;;;;;;;56.10;27.37;;;;;;;6.05;100.00;100261.91;1693633;82;21026;-88
2022/11/06 07:46:41;;;;;;;65.00;31.30;;;;;;;6.07;100.00;100263.27;1702144;83;21013;-87
2022/11/06 07:49:08;;;;;;;68.22;30.10;;;;;;;6.07;100.00;100270.09;1699447;83;21017;-76
2022/11/06 07:51:37;;;;;;;61.68;29.10;;;;;;;6.03;100.00;100265.44;1698894;83;20998;-83
2022/11/06 07:54:04;;;;;;;73.02;33.10;;;;;;;6.03;100.00;100265.44;1688489;83;22250;-85
2022/11/06 07:56:31;;;;;;;69.35;31.27;;;;;;;6.05;100.00;100268.72;1708822;83;21023;-84
2022/11/06 07:58:58;;;;;;;63.80;30.80;;;;;;;6.06;100.00;100267.09;1701557;83;20959;-76
2022/11/06 08:01:25;;;;;;;65.15;30.05;;;;;;;6.03;100.00;100274.44;1698926;83;21062;-78
2022/11/06 08:03:52;;;;;;;72.00;32.85;;;;;;;5.99;100.00;100276.06;1699244;83;21166;-81
2022/11/06 08:06:19;;;;;;;66.22;31.77;;;;;;;5.96;100.00;100273.32;1695486;83;20969;-86
2022/11/06 08:08:47;;;;;;;65.32;29.80;;;;;;;5.96;100.00;100269.78;1702998;83;21083;-88
2022/11/06 08:11:14;;;;;;;68.55;30.82;;;;;;;5.94;100.00;100275.50;1660349;84;21001;-87
2022/11/06 08:13:41;;;;;;;61.33;28.62;;;;;;;5.92;100.00;100276.30;1672777;84;21114;-84
2022/11/06 08:16:11;;;;;;;66.62;30.17;;;;;;;5.88;100.00;100280.62;1664836;85;21225;-84
2022/11/06 08:18:38;;;;;;;63.25;28.50;;;;;;;5.86;100.00;100281.97;1653794;86;21064;-80
2022/11/06 08:21:07;;;;;;;67.95;29.25;;;;;;;5.84;100.00;100278.69;1654879;86;21074;-84
2022/11/06 08:23:43;;;;;;;67.22;28.23;;;;;;;5.84;100.00;100282.78;1656260;85;21032;-81
2022/11/06 08:26:17;;;;;;;51.60;23.32;;;;;;;5.84;100.00;100290.41;1657666;85;21069;-81
2022/11/06 08:28:53;;;;;;;57.03;24.70;;;;;;;5.82;100.00;100281.69;1659643;85;21534;-80
2022/11/06 08:31:26;;;;;;;66.25;25.57;;;;;;;5.76;100.00;100289.59;1701418;83;21461;-75
2022/11/06 08:33:55;;;;;;;61.18;28.32;;;;;;;5.74;100.00;100286.31;1653340;85;20955;-77
2022/11/06 08:36:32;;;;;;;62.05;27.27;;;;;;;5.71;100.00;100284.66;1696073;83;20988;-80
2022/11/06 08:38:59;;;;;;;62.62;26.30;;;;;;;5.73;100.00;100291.48;1680141;83;21090;-79
2022/11/06 08:41:26;;;;;;;61.70;25.00;;;;;;;5.76;100.00;100289.59;1701090;83;21123;-82
2022/11/06 08:43:52;;;;;;;60.70;23.92;;;;;;;5.77;100.00;100292.59;1713284;82;20995;-75
2022/11/06 08:46:19;;;;;;;52.03;23.50;;;;;;;5.77;100.00;100287.69;1721914;82;21530;-84
2022/11/06 08:48:46;;;;;;;55.90;24.47;;;;;;;5.75;100.00;100287.95;1724788;82;21001;-80
2022/11/06 08:51:12;;;;;;;60.38;26.05;;;;;;;5.73;100.00;100294.21;1703153;83;21586;-74
2022/11/06 08:53:41;;;;;;;55.08;22.98;;;;;;;5.73;100.00;100292.84;1698371;82;21001;-74
2022/11/06 08:56:07;;;;;;;60.92;23.57;;;;;;;5.74;100.00;100289.03;1692444;83;21014;-77
2022/11/06 08:58:34;;;;;;;52.98;21.30;;;;;;;5.72;100.00;100291.20;1692734;83;21058;-73
2022/11/06 09:01:03;;;;;;;55.38;22.50;;;;;;;5.68;100.00;100286.01;1695855;83;21042;-74
2022/11/06 09:03:30;;;;;;;52.10;21.97;;;;;;;5.67;100.00;100289.82;1690633;83;21552;-74
2022/11/06 09:05:58;;;;;;;62.53;26.33;;;;;;;5.68;100.00;100289.28;1691930;84;21159;-75
2022/11/06 09:08:24;;;;;;;62.67;23.12;;;;;;;5.70;100.00;100289.29;1688701;82;21509;-73
2022/11/06 09:10:52;;;;;;;60.03;22.35;;;;;;;5.70;100.00;100289.29;1689931;82;21113;-75
2022/11/06 09:13:19;;;;;;;60.38;24.87;;;;;;;5.68;100.00;100283.29;1698199;83;21516;-74
2022/11/06 09:15:46;;;;;;;60.90;24.75;;;;;;;5.67;100.00;100284.91;1700432;83;20998;-75
2022/11/06 09:18:12;;;;;;;56.48;23.07;;;;;;;5.72;100.00;100277.58;1673462;83;21551;-74
2022/11/06 09:20:39;;;;;;;60.48;24.50;;;;;;;5.72;100.00;100277.58;1684204;83;21035;-75
2022/11/06 09:23:07;;;;;;;63.78;26.07;;;;;;;5.81;100.00;100270.51;1694296;83;21561;-76
2022/11/06 09:25:33;;;;;;;54.70;24.43;;;;;;;5.81;100.00;100270.51;1657816;86;20995;-75
2022/11/06 09:28:08;;;;;;;60.85;25.82;;;;;;;5.87;100.00;100271.34;1651306;85;21063;-75
2022/11/06 09:30:37;;;;;;;65.25;26.65;;;;;;;5.87;100.00;100270.80;1645000;85;21254;-75
2022/11/06 09:33:10;;;;;;;61.50;27.55;;;;;;;5.87;100.00;100268.08;1676563;85;21007;-73
2022/11/06 09:35:36;;;;;;;54.63;25.32;;;;;;;5.90;100.00;100266.76;1669257;84;21096;-75
2022/11/06 09:38:09;;;;;;;53.78;25.90;;;;;;;5.94;100.00;100265.14;1671796;84;21147;-73
2022/11/06 09:40:50;;;;;;;55.30;26.70;;;;;;;5.94;100.00;100265.14;1672404;85;21061;-72
2022/11/06 09:43:25;;;;;;;55.17;23.67;;;;;;;5.96;100.00;100271.14;1672705;85;21270;-73
2022/11/06 09:46:01;;;;;;;61.40;25.55;;;;;;;5.96;100.00;100267.87;1676483;84;21086;-72
2022/11/06 09:48:41;;;;;;;63.23;27.40;;;;;;;5.95;100.00;100268.14;1677102;83;21090;-77
2022/11/06 09:51:34;;;;;;;61.60;26.70;;;;;;;5.95;100.00;100276.31;1679699;83;21040;-73
2022/11/06 09:54:18;;;;;;;54.50;24.57;;;;;;;5.96;100.00;100262.42;1688584;83;21073;-72
2022/11/06 09:56:52;;;;;;;67.22;27.87;;;;;;;5.94;100.00;100268.69;1684474;83;22208;-72
2022/11/06 09:59:21;;;;;;;71.12;29.30;;;;;;;5.90;100.00;100269.48;1692454;83;21549;-72
2022/11/06 10:01:57;;;;;;;58.87;26.23;;;;;;;5.90;100.00;100269.48;1689307;84;21060;-71
2022/11/06 10:04:40;;;;;;;60.52;27.98;;;;;;;5.93;100.00;100271.13;1681282;83;21090;-73
2022/11/06 10:07:35;;;;;;;60.52;27.02;;;;;;;5.95;100.00;100262.69;1666381;84;21125;-73
2022/11/06 10:10:08;;;;;;;61.58;26.12;;;;;;;5.96;100.00;100264.33;1688626;83;21161;-73
2022/11/06 10:12:52;;;;;;;62.67;27.50;;;;;;;5.96;100.00;100260.23;1626300;87;21550;-76
2022/11/06 10:15:33;;;;;;;57.65;27.32;;;;;;;5.95;100.00;100261.33;1642004;84;21541;-73
2022/11/06 10:18:30;;;;;;;;;;;;;;;5.94;100.00;100261.87;1647667;83;21616;-73
2022/11/06 10:21:11;;;;;;;68.65;28.42;;;;;;;5.98;100.00;100254.52;1625867;87;20141;-72
2022/11/06 10:23:56;;;;;;;56.98;26.45;;;;;;;5.96;100.00;100247.98;1616875;85;22186;-74
2022/11/06 10:26:41;;;;;;;65.15;29.85;;;;;;;6.00;100.00;100249.63;1642640;85;21577;-71
2022/11/06 10:29:48;;;;;;;54.90;26.02;;;;;;;5.96;100.00;100249.34;1632375;85;21038;-71
2022/11/06 10:32:41;;;;;;;55.80;26.95;;;;;;;5.96;100.00;100245.25;1648441;86;21060;-72
2022/11/06 10:35:30;;;;;;;64.20;26.90;;;;;;;5.96;100.00;100242.52;1638164;85;21165;-72
2022/11/06 10:38:11;;;;;;;57.48;26.10;;;;;;;5.90;100.00;100244.41;1638906;85;21170;-72
2022/11/06 10:40:44;;;;;;;51.40;25.35;;;;;;;5.86;100.00;100246.00;1651263;85;21050;-74
2022/11/06 10:43:39;;;;;;;53.17;24.60;;;;;;;5.86;100.00;100246.00;1646222;86;21054;-77
2022/11/06 10:46:35;;;;;;;53.15;25.48;;;;;;;5.84;100.00;100244.09;1621419;85;21011;-73
2022/11/06 10:49:08;;;;;;;46.55;24.50;;;;;;;5.84;100.00;100242.73;1642153;84;21066;-74
2022/11/06 10:51:59;;;;;;;53.02;25.77;;;;;;;5.84;100.00;100241.36;1631542;85;21386;-74
2022/11/06 10:54:46;;;;;;;49.33;24.23;;;;;;;5.83;100.00;100238.36;1616832;85;21056;-74
2022/11/06 10:57:28;;;;;;;51.45;25.60;;;;;;;5.83;100.00;100235.64;1645717;85;21019;-74
2022/11/06 11:00:00;;;;;;;47.23;21.20;;;;;;;5.82;100.00;100239.45;1647157;85;21061;-75
2022/11/06 11:02:32;;;;;;;46.53;22.55;;;;;;;5.78;100.00;100235.62;1641785;85;21094;-72
2022/11/06 11:05:00;;;;;;;43.20;22.90;;;;;;;5.77;100.00;100232.66;1651957;85;21168;-73
2022/11/06 11:07:35;;;;;;;53.92;22.85;;;;;;;5.76;100.00;100227.47;1621958;86;21218;-73
2022/11/06 11:10:28;;;;;;;58.33;25.20;;;;;;;5.74;100.00;100227.73;1689002;83;21085;-73
2022/11/06 11:12:59;;;;;;;51.23;24.50;;;;;;;5.75;100.00;100228.02;1702193;83;21078;-74
2022/11/06 11:15:30;;;;;;;50.83;23.25;;;;;;;5.74;100.00;100226.38;1673937;83;21112;-74
2022/11/06 11:18:18;;;;;;;48.13;24.52;;;;;;;5.73;100.00;100219.83;1668544;84;20968;-74
2022/11/06 11:20:50;;;;;;;48.17;24.43;;;;;;;5.73;100.00;100227.47;1680191;84;21072;-72
2022/11/06 11:23:26;;;;;;;53.08;23.42;;;;;;;5.73;100.00;100227.47;1672694;84;21057;-74
2022/11/06 11:26:00;;;;;;;52.33;23.47;;;;;;;5.75;100.00;100221.20;1638328;85;21033;-72
2022/11/06 11:28:34;;;;;;;48.17;23.70;;;;;;;5.75;100.00;100224.47;1671155;85;21121;-74
2022/11/06 11:31:11;;;;;;;44.03;23.50;;;;;;;5.75;100.00;100224.47;1665293;85;21909;-74
2022/11/06 11:33:39;;;;;;;49.88;23.77;;;;;;;5.73;100.00;100223.37;1666155;85;20926;-74
2022/11/06 11:36:07;;;;;;;45.15;22.90;;;;;;;5.70;100.00;100225.27;1630553;87;21083;-73
2022/11/06 11:38:36;;;;;;;41.65;21.25;;;;;;;5.70;100.00;100225.27;1653876;85;21054;-74
2022/11/06 11:41:22;;;;;;;38.67;21.33;;;;;;;5.70;100.00;100223.09;1658606;85;21635;-74
2022/11/06 11:44:16;;;;;;;41.45;22.32;;;;;;;5.68;100.00;100217.91;1656484;85;20968;-74
2022/11/06 11:46:52;;;;;;;43.63;22.25;;;;;;;5.69;100.00;100217.36;1656992;85;21464;-74
2022/11/06 11:49:33;;;;;;;36.68;19.77;;;;;;;5.69;100.00;100217.36;1651779;84;20993;-74
2022/11/06 11:52:01;;;;;;;39.60;19.90;;;;;;;5.69;100.00;100215.46;1659941;85;21537;-74
2022/11/06 11:54:33;;;;;;;37.93;19.90;;;;;;;5.67;100.00;100213.55;1695451;83;21038;-75
2022/11/06 11:57:19;;;;;;;37.95;21.68;;;;;;;5.67;100.00;100213.55;1701215;83;21133;-74